createdAt,value
2023-01-31T00:01:38.467Z,15.80
2023-01-31T00:04:09.716Z,15.35
2023-01-31T00:06:44.986Z,16.90
2023-01-31T00:09:14.378Z,15.55
2023-01-31T00:11:41.260Z,15.05
2023-01-31T00:14:10.721Z,15.80
2023-01-31T00:16:37.729Z,14.85
2023-01-31T00:19:04.784Z,14.68
2023-01-31T00:21:32.735Z,14.50
2023-01-31T00:24:00.475Z,15.45
2023-01-31T00:26:33.061Z,16.40
2023-01-31T00:29:03.707Z,15.18
2023-01-31T00:31:33.410Z,14.30
2023-01-31T00:34:01.164Z,15.88
2023-01-31T00:36:32.219Z,14.73
2023-01-31T00:39:01.159Z,14.10
2023-01-31T00:41:30.869Z,13.48
2023-01-31T00:43:57.910Z,13.20
2023-01-31T00:46:25.624Z,15.75
2023-01-31T00:48:53.393Z,15.70
2023-01-31T00:51:20.708Z,15.43
2023-01-31T00:53:48.163Z,13.77
2023-01-31T00:56:18.570Z,15.50
2023-01-31T00:58:45.881Z,14.77
2023-01-31T01:01:14.923Z,14.48
2023-01-31T01:03:44.078Z,14.82
2023-01-31T01:06:11.990Z,13.95
2023-01-31T01:08:41.085Z,17.20
2023-01-31T01:11:18.358Z,15.70
2023-01-31T01:13:46.515Z,16.05
2023-01-31T01:16:17.191Z,14.18
2023-01-31T01:18:48.272Z,13.98
2023-01-31T01:21:18.186Z,14.38
2023-01-31T01:23:47.231Z,14.70
2023-01-31T01:28:47.461Z,12.93
2023-01-31T01:31:18.901Z,14.25
2023-01-31T01:33:48.531Z,13.20
2023-01-31T01:36:22.216Z,11.35
2023-01-31T01:38:49.508Z,12.52
2023-01-31T01:41:17.037Z,12.32
2023-01-31T01:43:44.051Z,10.88
2023-01-31T01:46:16.476Z,11.82
2023-01-31T01:48:48.293Z,11.82
2023-01-31T01:51:19.412Z,9.68
2023-01-31T01:53:51.441Z,9.80
2023-01-31T01:56:26.003Z,8.73
2023-01-31T01:59:02.080Z,7.82
2023-01-31T02:01:35.019Z,7.80
2023-01-31T02:04:09.356Z,7.50
2023-01-31T02:06:36.290Z,6.50
2023-01-31T02:09:07.987Z,7.03
2023-01-31T02:11:35.921Z,6.10
2023-01-31T02:14:07.412Z,6.35
2023-01-31T02:16:35.467Z,6.28
2023-01-31T02:19:25.382Z,6.70
2023-01-31T02:21:52.255Z,6.28
2023-01-31T02:25:03.463Z,6.78
2023-01-31T02:27:51.397Z,6.03
2023-01-31T02:30:27.632Z,6.22
2023-01-31T02:33:07.231Z,6.25
2023-01-31T02:35:50.121Z,7.10
2023-01-31T02:38:17.110Z,6.57
2023-01-31T02:40:50.305Z,6.72
2023-01-31T02:44:09.467Z,6.88
2023-01-31T02:46:53.227Z,6.43
2023-01-31T02:49:37.014Z,5.70
2023-01-31T02:52:31.487Z,6.80
2023-01-31T02:55:27.904Z,6.70
2023-01-31T02:57:58.997Z,6.75
2023-01-31T03:00:27.299Z,7.43
2023-01-31T03:02:54.281Z,6.70
2023-01-31T03:05:21.833Z,7.97
2023-01-31T03:07:59.902Z,7.07
2023-01-31T03:10:55.984Z,7.65
2023-01-31T03:13:35.212Z,7.00
2023-01-31T03:16:31.337Z,8.45
2023-01-31T03:19:21.123Z,7.70
2023-01-31T03:22:12.033Z,8.07
2023-01-31T03:24:40.493Z,9.05
2023-01-31T03:27:07.535Z,8.77
2023-01-31T03:29:38.674Z,8.18
2023-01-31T03:32:24.725Z,8.73
2023-01-31T03:34:53.282Z,8.15
2023-01-31T03:37:44.988Z,8.57
2023-01-31T03:40:32.188Z,8.63
2023-01-31T03:43:07.427Z,8.55
2023-01-31T03:45:41.672Z,8.85
2023-01-31T03:48:14.690Z,8.77
2023-01-31T03:50:51.393Z,9.95
2023-01-31T03:53:22.770Z,9.75
2023-01-31T03:55:53.493Z,9.55
2023-01-31T03:58:24.790Z,10.57
2023-01-31T04:00:53.100Z,9.18
2023-01-31T04:03:28.059Z,10.07
2023-01-31T04:05:55.128Z,10.75
2023-01-31T04:08:22.556Z,10.48
2023-01-31T04:10:59.692Z,10.40
2023-01-31T04:13:26.694Z,10.50
2023-01-31T04:15:53.552Z,11.75
2023-01-31T04:18:20.562Z,9.90
2023-01-31T04:20:47.486Z,8.85
2023-01-31T04:23:14.739Z,11.55
2023-01-31T04:25:41.582Z,10.15
2023-01-31T04:28:08.488Z,11.70
2023-01-31T04:30:35.495Z,10.23
2023-01-31T04:33:02.543Z,11.18
2023-01-31T04:35:29.954Z,10.25
2023-01-31T04:37:56.829Z,9.88
2023-01-31T04:40:23.717Z,10.27
2023-01-31T04:42:50.968Z,12.10
2023-01-31T04:45:18.503Z,11.32
2023-01-31T04:47:45.663Z,11.32
2023-01-31T04:50:12.666Z,12.63
2023-01-31T04:52:39.794Z,11.63
2023-01-31T04:55:07.144Z,11.93
2023-01-31T04:57:34.118Z,12.60
2023-01-31T05:00:01.295Z,12.18
2023-01-31T05:02:30.418Z,12.00
2023-01-31T05:04:57.345Z,10.68
2023-01-31T05:07:24.271Z,11.13
2023-01-31T05:09:51.141Z,11.15
2023-01-31T05:12:18.205Z,12.07
2023-01-31T05:14:45.120Z,11.70
2023-01-31T05:17:12.178Z,11.43
2023-01-31T05:19:39.217Z,10.93
2023-01-31T05:22:06.433Z,10.73
2023-01-31T05:24:33.634Z,10.43
2023-01-31T05:27:01.865Z,11.00
2023-01-31T05:29:31.411Z,10.23
2023-01-31T05:34:30.848Z,10.93
2023-01-31T05:36:58.283Z,9.70
2023-01-31T05:39:26.100Z,10.77
2023-01-31T05:41:53.226Z,10.27
2023-01-31T05:44:20.604Z,11.27
2023-01-31T05:46:48.802Z,10.90
2023-01-31T05:49:16.132Z,11.43
2023-01-31T05:51:43.179Z,10.57
2023-01-31T05:54:11.830Z,9.88
2023-01-31T05:56:39.327Z,10.20
2023-01-31T05:59:06.782Z,9.30
2023-01-31T06:01:33.721Z,9.70
2023-01-31T06:04:00.861Z,9.95
2023-01-31T06:06:27.805Z,9.55
2023-01-31T06:08:54.820Z,9.45
2023-01-31T06:11:21.672Z,8.68
2023-01-31T06:13:49.546Z,9.25
2023-01-31T06:16:16.953Z,11.18
2023-01-31T06:19:02.678Z,10.00
2023-01-31T06:21:29.825Z,10.35
2023-01-31T06:23:57.264Z,10.20
2023-01-31T06:26:24.504Z,10.55
2023-01-31T06:28:51.468Z,9.07
2023-01-31T06:31:19.505Z,11.65
2023-01-31T06:33:48.031Z,11.63
2023-01-31T06:36:18.877Z,12.15
2023-01-31T06:38:51.081Z,10.75
2023-01-31T06:41:19.499Z,12.90
2023-01-31T06:43:46.505Z,13.20
2023-01-31T06:46:15.562Z,12.00
2023-01-31T06:48:42.617Z,10.90
2023-01-31T06:51:10.191Z,12.75
2023-01-31T06:53:37.209Z,13.10
2023-01-31T06:56:04.322Z,13.38
2023-01-31T06:58:50.007Z,12.85
2023-01-31T07:01:17.195Z,13.70
2023-01-31T07:03:44.500Z,12.60
2023-01-31T07:06:12.027Z,11.60
2023-01-31T07:08:38.959Z,12.88
2023-01-31T07:11:06.306Z,12.38
2023-01-31T07:13:33.481Z,11.07
2023-01-31T07:16:00.893Z,12.30
2023-01-31T07:18:28.166Z,11.93
2023-01-31T07:20:55.118Z,10.45
2023-01-31T07:23:22.004Z,10.77
2023-01-31T07:25:49.120Z,10.88
2023-01-31T07:28:16.251Z,12.10
2023-01-31T07:30:43.952Z,11.20
2023-01-31T07:33:11.789Z,10.30
2023-01-31T07:35:38.968Z,10.32
2023-01-31T07:38:05.816Z,11.15
2023-01-31T07:40:33.199Z,11.93
2023-01-31T07:43:00.699Z,13.50
2023-01-31T07:45:27.846Z,11.32
2023-01-31T07:47:58.627Z,12.00
2023-01-31T07:50:27.319Z,12.40
2023-01-31T07:52:54.291Z,10.90
2023-01-31T07:55:21.779Z,10.90
2023-01-31T07:57:48.798Z,11.23
2023-01-31T08:00:34.973Z,13.48
2023-01-31T08:03:20.634Z,13.23
2023-01-31T08:05:47.965Z,10.15
2023-01-31T08:08:14.833Z,10.35
2023-01-31T08:10:41.740Z,9.27
2023-01-31T08:13:11.125Z,11.00
2023-01-31T08:18:06.386Z,10.95
2023-01-31T08:20:34.166Z,13.68
2023-01-31T08:23:01.266Z,11.10
2023-01-31T08:25:31.920Z,10.70
2023-01-31T08:28:00.488Z,11.27
2023-01-31T08:30:28.472Z,11.10
2023-01-31T08:32:56.461Z,10.77
2023-01-31T08:35:23.331Z,11.90
2023-01-31T08:37:50.147Z,11.32
2023-01-31T08:40:17.460Z,10.40
2023-01-31T08:42:44.557Z,10.10
2023-01-31T08:45:11.883Z,10.65
2023-01-31T08:47:40.202Z,8.68
2023-01-31T08:50:15.836Z,9.20
2023-01-31T08:52:57.055Z,9.80
2023-01-31T08:55:25.114Z,8.93
2023-01-31T08:57:59.844Z,8.40
2023-01-31T09:00:27.557Z,10.50
2023-01-31T09:02:56.394Z,9.57
2023-01-31T09:05:25.184Z,9.85
2023-01-31T09:07:54.070Z,9.05
2023-01-31T09:10:22.172Z,9.38
2023-01-31T09:12:49.220Z,8.70
2023-01-31T09:15:17.157Z,8.65
2023-01-31T09:17:44.392Z,7.85
2023-01-31T09:20:11.688Z,8.40
2023-01-31T09:22:38.730Z,7.93
2023-01-31T09:25:06.444Z,6.90
2023-01-31T09:27:33.405Z,6.35
2023-01-31T09:30:00.399Z,7.20
2023-01-31T09:32:27.384Z,7.53
2023-01-31T09:34:54.429Z,8.45
2023-01-31T09:37:21.298Z,7.90
2023-01-31T09:39:48.310Z,6.57
2023-01-31T09:42:33.823Z,8.88
2023-01-31T09:45:21.789Z,14.15
2023-01-31T09:47:52.439Z,6.28
2023-01-31T09:50:34.875Z,7.07
2023-01-31T09:53:02.853Z,7.07
2023-01-31T09:55:38.310Z,7.75
2023-01-31T09:58:18.708Z,6.85
2023-01-31T10:00:58.931Z,6.82
2023-01-31T10:03:46.034Z,6.65
2023-01-31T10:06:24.936Z,7.72
2023-01-31T10:09:19.851Z,6.53
2023-01-31T10:11:59.230Z,6.88
2023-01-31T10:17:18.850Z,5.97
2023-01-31T10:19:51.527Z,6.28
2023-01-31T10:22:26.137Z,6.28
2023-01-31T10:24:59.605Z,6.28
2023-01-31T10:27:40.982Z,7.75
2023-01-31T10:30:16.968Z,5.32
2023-01-31T10:32:48.729Z,4.97
2023-01-31T10:35:28.085Z,6.32
2023-01-31T10:38:05.983Z,5.43
2023-01-31T10:40:37.255Z,4.25
2023-01-31T10:43:30.139Z,5.65
2023-01-31T10:46:01.081Z,5.63
2023-01-31T10:48:29.862Z,4.60
2023-01-31T10:51:08.688Z,5.77
2023-01-31T10:53:59.120Z,5.88
2023-01-31T10:56:37.854Z,6.13
2023-01-31T10:59:12.069Z,6.95
2023-01-31T11:01:39.088Z,5.25
2023-01-31T11:04:26.575Z,4.68
2023-01-31T11:06:54.685Z,4.82
2023-01-31T11:09:24.532Z,5.15
2023-01-31T11:12:00.460Z,5.38
2023-01-31T11:14:27.620Z,4.78
2023-01-31T11:17:17.379Z,4.82
2023-01-31T11:19:51.601Z,5.38
2023-01-31T11:22:32.326Z,4.60
2023-01-31T11:25:04.286Z,4.72
2023-01-31T11:27:43.515Z,4.80
2023-01-31T11:30:32.654Z,4.20
2023-01-31T11:32:59.625Z,5.60
2023-01-31T11:35:33.180Z,5.13
2023-01-31T11:38:22.388Z,3.92
2023-01-31T11:40:49.798Z,5.05
2023-01-31T11:43:19.732Z,5.15
2023-01-31T11:45:55.194Z,5.38
2023-01-31T11:48:40.529Z,5.20
2023-01-31T11:51:08.580Z,5.65
2023-01-31T11:53:50.823Z,4.63
2023-01-31T11:56:23.016Z,5.68
2023-01-31T11:58:55.141Z,6.15
2023-01-31T12:01:24.682Z,5.85
2023-01-31T12:06:42.007Z,6.50
2023-01-31T12:09:22.555Z,7.78
2023-01-31T12:11:52.297Z,5.82
2023-01-31T12:14:20.737Z,6.63
2023-01-31T12:16:49.947Z,5.75
2023-01-31T12:19:29.192Z,8.27
2023-01-31T12:22:16.758Z,7.95
2023-01-31T12:25:16.641Z,7.07
2023-01-31T12:27:56.417Z,7.43
2023-01-31T12:30:23.277Z,7.47
2023-01-31T12:33:16.653Z,7.15
2023-01-31T12:35:55.510Z,6.35
2023-01-31T12:38:22.356Z,7.30
2023-01-31T12:40:49.278Z,7.65
2023-01-31T12:43:25.247Z,6.82
2023-01-31T12:46:07.317Z,6.75
2023-01-31T12:49:00.534Z,6.07
2023-01-31T12:51:51.633Z,5.25
2023-01-31T12:54:47.804Z,7.00
2023-01-31T12:57:30.525Z,6.35
2023-01-31T13:00:10.202Z,6.43
2023-01-31T13:03:07.586Z,5.65
2023-01-31T13:05:54.586Z,6.68
2023-01-31T13:08:33.251Z,5.05
2023-01-31T13:11:12.896Z,6.53
2023-01-31T13:13:46.756Z,6.22
2023-01-31T13:16:18.932Z,7.07
2023-01-31T13:18:49.328Z,6.47
2023-01-31T13:21:21.441Z,6.50
2023-01-31T13:23:59.771Z,6.18
2023-01-31T13:26:32.522Z,5.97
2023-01-31T13:29:33.870Z,7.03
2023-01-31T13:32:20.547Z,5.93
2023-01-31T13:34:53.713Z,7.50
2023-01-31T13:37:24.020Z,6.30
2023-01-31T13:39:58.173Z,5.45
2023-01-31T13:42:25.489Z,5.10
2023-01-31T13:44:53.154Z,4.50
2023-01-31T13:47:34.161Z,4.65
2023-01-31T13:50:47.023Z,4.65
2023-01-31T13:53:20.698Z,7.38
2023-01-31T13:55:50.500Z,6.50
2023-01-31T13:58:25.897Z,5.93
2023-01-31T14:01:01.809Z,6.15
2023-01-31T14:03:28.747Z,5.40
2023-01-31T14:06:02.171Z,6.45
2023-01-31T14:08:32.055Z,5.10
2023-01-31T14:11:01.733Z,5.22
2023-01-31T14:13:31.566Z,5.10
2023-01-31T14:15:59.124Z,4.78
2023-01-31T14:18:36.131Z,4.90
2023-01-31T14:21:29.268Z,5.30
2023-01-31T14:24:06.357Z,4.72
2023-01-31T14:26:42.664Z,4.95
2023-01-31T14:29:15.475Z,4.28
2023-01-31T14:31:48.333Z,5.80
2023-01-31T14:34:27.984Z,4.25
2023-01-31T14:36:55.008Z,4.00
2023-01-31T14:39:30.714Z,5.00
2023-01-31T14:42:16.233Z,7.47
2023-01-31T14:45:03.389Z,7.22
2023-01-31T14:47:39.531Z,6.07
2023-01-31T14:50:56.535Z,6.90
2023-01-31T14:53:41.255Z,6.40
2023-01-31T14:56:26.288Z,6.03
2023-01-31T14:58:54.162Z,6.90
2023-01-31T15:01:24.130Z,5.07
2023-01-31T15:03:56.443Z,6.53
2023-01-31T15:06:40.673Z,6.53
2023-01-31T15:09:19.223Z,7.50
2023-01-31T15:11:48.289Z,5.90
2023-01-31T15:14:34.249Z,6.03
2023-01-31T15:17:33.233Z,6.60
2023-01-31T15:22:49.822Z,5.82
2023-01-31T15:25:23.289Z,6.45
2023-01-31T15:27:51.550Z,6.05
2023-01-31T15:30:21.309Z,6.68
2023-01-31T15:33:13.671Z,7.70
2023-01-31T15:35:54.206Z,7.05
2023-01-31T15:38:43.569Z,6.70
2023-01-31T15:41:36.361Z,6.95
2023-01-31T15:44:23.842Z,7.40
2023-01-31T15:46:55.553Z,7.57
2023-01-31T15:49:39.480Z,8.48
2023-01-31T15:52:15.431Z,7.55
2023-01-31T15:54:55.913Z,6.68
2023-01-31T15:57:27.740Z,7.55
2023-01-31T15:59:56.424Z,6.13
2023-01-31T16:02:30.930Z,7.35
2023-01-31T16:04:58.165Z,7.50
2023-01-31T16:07:31.505Z,6.75
2023-01-31T16:10:03.796Z,7.85
2023-01-31T16:12:32.779Z,7.10
2023-01-31T16:15:06.292Z,6.90
2023-01-31T16:17:34.219Z,6.15
2023-01-31T16:20:01.345Z,7.45
2023-01-31T16:22:32.661Z,6.47
2023-01-31T16:25:02.126Z,6.30
2023-01-31T16:27:42.915Z,6.70
2023-01-31T16:30:16.938Z,7.30
2023-01-31T16:32:46.618Z,6.75
2023-01-31T16:35:24.573Z,6.05
2023-01-31T16:38:00.738Z,6.32
2023-01-31T16:40:49.224Z,6.65
2023-01-31T16:43:27.781Z,6.57
2023-01-31T16:45:58.120Z,5.88
2023-01-31T16:48:29.711Z,6.22
2023-01-31T16:50:58.964Z,5.82
2023-01-31T16:53:35.932Z,6.82
2023-01-31T16:56:15.333Z,6.82
2023-01-31T17:01:22.307Z,9.30
2023-01-31T17:04:09.344Z,7.53
2023-01-31T17:06:37.332Z,12.68
2023-01-31T17:09:07.413Z,11.27
2023-01-31T17:11:42.751Z,8.40
2023-01-31T17:14:11.450Z,8.52
2023-01-31T17:16:39.020Z,8.90
2023-01-31T17:19:06.202Z,8.63
2023-01-31T17:21:39.215Z,8.93
2023-01-31T17:24:06.963Z,13.30
2023-01-31T17:26:33.855Z,10.68
2023-01-31T17:29:02.563Z,11.32
2023-01-31T17:31:31.438Z,12.15
2023-01-31T17:33:58.550Z,10.65
2023-01-31T17:36:25.369Z,10.48
2023-01-31T17:38:53.102Z,10.15
2023-01-31T17:41:21.692Z,9.38
2023-01-31T17:43:48.686Z,8.40
2023-01-31T17:46:17.562Z,6.50
2023-01-31T17:48:45.117Z,8.23
2023-01-31T17:51:12.406Z,7.95
2023-01-31T17:53:49.422Z,7.03
2023-01-31T17:56:18.540Z,9.77
2023-01-31T17:58:46.152Z,8.13
2023-01-31T18:01:14.478Z,9.95
2023-01-31T18:03:42.614Z,9.77
2023-01-31T18:06:10.319Z,9.52
2023-01-31T18:08:37.993Z,10.68
2023-01-31T18:11:07.698Z,7.93
2023-01-31T18:13:38.181Z,7.93
2023-01-31T18:16:15.007Z,8.13
2023-01-31T18:18:43.958Z,8.27
2023-01-31T18:21:20.265Z,9.23
2023-01-31T18:23:56.243Z,6.32
2023-01-31T18:26:24.492Z,6.45
2023-01-31T18:28:52.028Z,6.47
2023-01-31T18:31:19.115Z,5.25
2023-01-31T18:33:47.601Z,5.57
2023-01-31T18:36:17.964Z,5.13
2023-01-31T18:38:46.430Z,6.80
2023-01-31T18:41:16.283Z,5.40
2023-01-31T18:43:43.456Z,4.88
2023-01-31T18:46:11.393Z,5.90
2023-01-31T18:48:39.610Z,5.93
2023-01-31T18:51:08.579Z,7.47
2023-01-31T18:53:37.914Z,5.80
2023-01-31T18:56:07.160Z,6.68
2023-01-31T18:58:36.614Z,6.40
2023-01-31T19:01:17.696Z,6.75
2023-01-31T19:03:47.008Z,7.07
2023-01-31T19:06:16.631Z,6.15
2023-01-31T19:08:46.814Z,8.57
2023-01-31T19:11:15.820Z,7.30
2023-01-31T19:13:43.259Z,7.68
2023-01-31T19:16:22.131Z,8.48
2023-01-31T19:18:50.462Z,8.52
2023-01-31T19:21:28.729Z,8.53
2023-01-31T19:23:59.535Z,10.20
2023-01-31T19:26:27.235Z,9.68
2023-01-31T19:28:55.734Z,9.85
2023-01-31T19:31:24.990Z,9.23
2023-01-31T19:33:57.786Z,9.25
2023-01-31T19:36:30.566Z,9.35
2023-01-31T19:38:59.545Z,10.55
2023-01-31T19:41:27.899Z,7.60
2023-01-31T19:43:57.138Z,7.75
2023-01-31T19:46:27.254Z,7.22
2023-01-31T19:48:56.072Z,7.45
2023-01-31T19:51:25.132Z,7.55
2023-01-31T19:53:55.523Z,6.63
2023-01-31T19:56:24.348Z,6.80
2023-01-31T19:58:51.619Z,7.32
2023-01-31T20:01:19.034Z,6.30
2023-01-31T20:03:46.507Z,6.93
2023-01-31T20:06:16.179Z,5.38
2023-01-31T20:08:50.745Z,6.10
2023-01-31T20:11:18.365Z,6.07
2023-01-31T20:13:45.675Z,5.75
2023-01-31T20:16:13.623Z,4.97
2023-01-31T20:18:41.339Z,5.88
2023-01-31T20:21:13.683Z,5.38
2023-01-31T20:23:40.841Z,4.95
2023-01-31T20:26:07.777Z,5.82
2023-01-31T20:28:34.761Z,5.78
2023-01-31T20:31:09.853Z,5.10
2023-01-31T20:33:37.479Z,5.22
2023-01-31T20:36:05.353Z,5.90
2023-01-31T20:38:32.658Z,5.10
2023-01-31T20:41:02.209Z,5.32
2023-01-31T20:43:29.206Z,5.35
2023-01-31T20:46:07.281Z,7.25
2023-01-31T20:48:34.289Z,4.78
2023-01-31T20:51:01.256Z,5.22
2023-01-31T20:53:28.797Z,4.30
2023-01-31T20:56:04.575Z,4.93
2023-01-31T20:58:34.735Z,5.43
2023-01-31T21:01:05.516Z,4.60
2023-01-31T21:03:34.170Z,5.80
2023-01-31T21:06:01.928Z,4.90
2023-01-31T21:08:29.988Z,5.57
2023-01-31T21:10:58.628Z,5.43
2023-01-31T21:13:30.133Z,4.90
2023-01-31T21:16:00.022Z,5.85
2023-01-31T21:18:28.762Z,5.00
2023-01-31T21:21:23.601Z,5.50
2023-01-31T21:23:52.717Z,5.13
2023-01-31T21:26:21.104Z,5.68
2023-01-31T21:28:48.856Z,4.95
2023-01-31T21:31:18.455Z,4.30
2023-01-31T21:33:50.632Z,4.28
2023-01-31T21:36:20.456Z,4.38
2023-01-31T21:38:47.395Z,4.05
2023-01-31T21:41:33.929Z,4.55
2023-01-31T21:44:00.755Z,4.82
2023-01-31T21:46:27.986Z,3.58
2023-01-31T21:48:55.017Z,3.88
2023-01-31T21:51:24.585Z,4.10
2023-01-31T21:53:53.165Z,4.05
2023-01-31T21:56:26.236Z,4.55
2023-01-31T21:58:54.602Z,4.22
2023-01-31T22:01:28.563Z,4.38
2023-01-31T22:03:56.572Z,5.50
2023-01-31T22:06:31.494Z,4.63
2023-01-31T22:09:00.778Z,4.35
2023-01-31T22:11:35.478Z,3.95
2023-01-31T22:14:05.068Z,4.10
2023-01-31T22:16:32.121Z,4.60
2023-01-31T22:19:02.723Z,4.53
2023-01-31T22:21:36.064Z,4.75
2023-01-31T22:24:04.754Z,4.65
2023-01-31T22:26:43.404Z,4.82
2023-01-31T22:29:12.978Z,4.45
2023-01-31T22:31:40.254Z,5.10
2023-01-31T22:34:08.894Z,3.97
2023-01-31T22:36:36.178Z,4.47
2023-01-31T22:39:03.142Z,4.95
2023-01-31T22:41:30.409Z,3.65
2023-01-31T22:43:57.471Z,5.30
2023-01-31T22:46:27.056Z,4.10
2023-01-31T22:48:54.943Z,3.88
2023-01-31T22:51:25.956Z,4.80
2023-01-31T22:53:54.951Z,4.82
2023-01-31T22:56:24.435Z,4.75
2023-01-31T22:59:02.496Z,5.70
2023-01-31T23:01:32.829Z,4.15
2023-01-31T23:04:01.532Z,4.20
2023-01-31T23:06:29.280Z,7.03
2023-01-31T23:08:57.045Z,5.40
2023-01-31T23:11:25.142Z,8.38
2023-01-31T23:13:52.349Z,4.65
2023-01-31T23:16:21.918Z,4.82
2023-01-31T23:18:49.011Z,5.00
2023-01-31T23:21:18.629Z,6.00
2023-01-31T23:23:46.190Z,6.45
2023-01-31T23:26:13.897Z,6.70
2023-01-31T23:28:41.217Z,5.72
2023-01-31T23:31:08.428Z,8.38
2023-01-31T23:33:35.444Z,7.18
2023-01-31T23:36:02.748Z,7.68
2023-01-31T23:38:29.828Z,6.55
2023-01-31T23:40:56.674Z,6.40
2023-01-31T23:43:24.163Z,7.32
2023-01-31T23:45:51.213Z,8.57
2023-01-31T23:48:18.466Z,7.18
2023-01-31T23:50:45.359Z,7.40
2023-01-31T23:53:12.408Z,7.00
2023-01-31T23:55:39.328Z,6.07
2023-01-31T23:58:06.335Z,5.85
